sensor_id;sensor_type;location;lat;lon;timestamp;pressure;altitude;pressure_sealevel;temperature;humidity
18988;BME280;5494;51.796;10.952;2023-02-18T00:01:42;99264.16;;;8.30;65.16
18988;BME280;5494;51.796;10.952;2023-02-18T00:04:10;99264.72;;;8.39;65.15
18988;BME280;5494;51.796;10.952;2023-02-18T00:06:38;99251.00;;;8.37;65.43
18988;BME280;5494;51.796;10.952;2023-02-18T00:09:06;99259.03;;;8.29;66.50
18988;BME280;5494;51.796;10.952;2023-02-18T00:11:36;99251.44;;;8.23;66.63
18988;BME280;5494;51.796;10.952;2023-02-18T00:14:11;99252.47;;;8.19;67.52
18988;BME280;5494;51.796;10.952;2023-02-18T00:16:41;99250.69;;;8.21;66.54
18988;BME280;5494;51.796;10.952;2023-02-18T00:19:12;99259.53;;;8.15;67.11
18988;BME280;5494;51.796;10.952;2023-02-18T00:21:42;99246.13;;;8.04;67.47
18988;BME280;5494;51.796;10.952;2023-02-18T00:24:15;99248.22;;;7.95;67.83
18988;BME280;5494;51.796;10.952;2023-02-18T00:26:43;99249.06;;;7.95;68.45
18988;BME280;5494;51.796;10.952;2023-02-18T00:29:12;99262.03;;;7.94;68.40
18988;BME280;5494;51.796;10.952;2023-02-18T00:31:42;99255.50;;;7.83;69.12
18988;BME280;5494;51.796;10.952;2023-02-18T00:34:11;99251.28;;;7.81;69.18
18988;BME280;5494;51.796;10.952;2023-02-18T00:36:40;99245.25;;;7.80;69.23
18988;BME280;5494;51.796;10.952;2023-02-18T00:39:11;99245.31;;;7.79;69.61
18988;BME280;5494;51.796;10.952;2023-02-18T00:41:40;99250.53;;;7.77;69.54
18988;BME280;5494;51.796;10.952;2023-02-18T00:44:09;99239.63;;;7.68;70.68
18988;BME280;5494;51.796;10.952;2023-02-18T00:46:38;99239.63;;;7.68;70.52
18988;BME280;5494;51.796;10.952;2023-02-18T00:49:08;99249.09;;;7.69;70.73
18988;BME280;5494;51.796;10.952;2023-02-18T00:51:37;99250.78;;;7.70;70.76
18988;BME280;5494;51.796;10.952;2023-02-18T00:54:06;99244.03;;;7.66;71.47
18988;BME280;5494;51.796;10.952;2023-02-18T00:56:34;99239.75;;;7.65;71.27
18988;BME280;5494;51.796;10.952;2023-02-18T00:59:02;99246.94;;;7.57;71.59
18988;BME280;5494;51.796;10.952;2023-02-18T01:01:30;99233.00;;;7.61;71.80
18988;BME280;5494;51.796;10.952;2023-02-18T01:03:58;99246.91;;;7.58;72.37
18988;BME280;5494;51.796;10.952;2023-02-18T01:06:28;99243.28;;;7.62;72.04
18988;BME280;5494;51.796;10.952;2023-02-18T01:08:56;99245.66;;;7.68;72.18
18988;BME280;5494;51.796;10.952;2023-02-18T01:11:24;99238.47;;;7.76;72.55
18988;BME280;5494;51.796;10.952;2023-02-18T01:13:53;99217.69;;;7.79;72.29
18988;BME280;5494;51.796;10.952;2023-02-18T01:16:21;99242.94;;;7.73;72.85
18988;BME280;5494;51.796;10.952;2023-02-18T01:18:49;99253.91;;;7.79;73.43
18988;BME280;5494;51.796;10.952;2023-02-18T01:21:17;99226.22;;;7.81;74.06
18988;BME280;5494;51.796;10.952;2023-02-18T01:23:47;99247.72;;;7.83;75.26
18988;BME280;5494;51.796;10.952;2023-02-18T01:26:15;99242.31;;;7.89;76.02
18988;BME280;5494;51.796;10.952;2023-02-18T01:28:43;99233.00;;;7.85;76.71
18988;BME280;5494;51.796;10.952;2023-02-18T01:31:12;99224.47;;;7.82;77.73
18988;BME280;5494;51.796;10.952;2023-02-18T01:33:41;99239.81;;;7.88;78.90
18988;BME280;5494;51.796;10.952;2023-02-18T01:36:10;99235.44;;;7.88;79.57
18988;BME280;5494;51.796;10.952;2023-02-18T01:38:38;99231.97;;;7.89;80.20
18988;BME280;5494;51.796;10.952;2023-02-18T01:41:08;99233.00;;;7.85;81.12
18988;BME280;5494;51.796;10.952;2023-02-18T01:43:38;99234.47;;;7.93;81.77
18988;BME280;5494;51.796;10.952;2023-02-18T01:46:16;99225.59;;;8.00;82.23
18988;BME280;5494;51.796;10.952;2023-02-18T01:48:50;99231.38;;;8.06;83.11
18988;BME280;5494;51.796;10.952;2023-02-18T01:51:23;99238.06;;;8.12;82.98
18988;BME280;5494;51.796;10.952;2023-02-18T01:53:57;99239.81;;;8.11;83.91
18988;BME280;5494;51.796;10.952;2023-02-18T01:56:34;99227.63;;;8.15;83.86
18988;BME280;5494;51.796;10.952;2023-02-18T01:59:10;99231.53;;;8.25;83.32
18988;BME280;5494;51.796;10.952;2023-02-18T02:01:43;99221.97;;;8.27;84.08
18988;BME280;5494;51.796;10.952;2023-02-18T02:04:12;99222.81;;;8.27;84.32
18988;BME280;5494;51.796;10.952;2023-02-18T02:06:43;99211.47;;;8.32;84.88
18988;BME280;5494;51.796;10.952;2023-02-18T02:09:15;99218.09;;;8.39;85.10
18988;BME280;5494;51.796;10.952;2023-02-18T02:12:35;99221.81;;;8.32;85.34
18988;BME280;5494;51.796;10.952;2023-02-18T02:15:27;99211.19;;;8.39;85.14
18988;BME280;5494;51.796;10.952;2023-02-18T02:18:16;99223.41;;;8.36;85.78
18988;BME280;5494;51.796;10.952;2023-02-18T02:21:55;99221.06;;;8.28;85.77
18988;BME280;5494;51.796;10.952;2023-02-18T02:24:55;99219.94;;;8.37;87.01
18988;BME280;5494;51.796;10.952;2023-02-18T02:27:41;99219.19;;;8.33;87.61
18988;BME280;5494;51.796;10.952;2023-02-18T02:30:39;99219.25;;;8.30;87.88
18988;BME280;5494;51.796;10.952;2023-02-18T02:33:49;99206.31;;;8.30;88.44
18988;BME280;5494;51.796;10.952;2023-02-18T02:36:29;99208.03;;;8.31;89.36
18988;BME280;5494;51.796;10.952;2023-02-18T02:39:13;99211.56;;;8.28;90.07
18988;BME280;5494;51.796;10.952;2023-02-18T02:41:53;99212.22;;;8.35;89.92
18988;BME280;5494;51.796;10.952;2023-02-18T02:44:37;99210.47;;;8.36;89.99
18988;BME280;5494;51.796;10.952;2023-02-18T02:47:13;99195.59;;;8.41;89.78
18988;BME280;5494;51.796;10.952;2023-02-18T02:49:57;99198.03;;;8.44;89.72
18988;BME280;5494;51.796;10.952;2023-02-18T02:52:33;99202.94;;;8.51;89.01
18988;BME280;5494;51.796;10.952;2023-02-18T02:55:08;99204.56;;;8.54;88.70
18988;BME280;5494;51.796;10.952;2023-02-18T02:57:49;99201.97;;;8.54;88.17
18988;BME280;5494;51.796;10.952;2023-02-18T03:00:31;99199.13;;;8.60;87.42
18988;BME280;5494;51.796;10.952;2023-02-18T03:03:33;99184.38;;;8.62;86.82
18988;BME280;5494;51.796;10.952;2023-02-18T03:06:46;99193.16;;;8.58;86.64
18988;BME280;5494;51.796;10.952;2023-02-18T03:09:29;99183.13;;;8.50;87.31
18988;BME280;5494;51.796;10.952;2023-02-18T03:12:08;99186.31;;;8.57;86.80
18988;BME280;5494;51.796;10.952;2023-02-18T03:14:45;99190.56;;;8.58;86.57
18988;BME280;5494;51.796;10.952;2023-02-18T03:17:25;99187.53;;;8.70;85.83
18988;BME280;5494;51.796;10.952;2023-02-18T03:20:02;99172.69;;;8.74;85.26
18988;BME280;5494;51.796;10.952;2023-02-18T03:22:38;99183.53;;;8.61;86.13
18988;BME280;5494;51.796;10.952;2023-02-18T03:25:10;99179.44;;;8.56;86.41
18988;BME280;5494;51.796;10.952;2023-02-18T03:27:45;99167.03;;;8.64;86.38
18988;BME280;5494;51.796;10.952;2023-02-18T03:30:23;99166.31;;;8.60;86.09
18988;BME280;5494;51.796;10.952;2023-02-18T03:32:57;99182.50;;;8.65;86.15
18988;BME280;5494;51.796;10.952;2023-02-18T03:35:27;99171.78;;;8.75;86.15
18988;BME280;5494;51.796;10.952;2023-02-18T03:38:02;99176.84;;;8.78;85.44
18988;BME280;5494;51.796;10.952;2023-02-18T03:40:35;99174.63;;;8.68;86.50
18988;BME280;5494;51.796;10.952;2023-02-18T03:43:03;99171.84;;;8.73;87.56
18988;BME280;5494;51.796;10.952;2023-02-18T03:45:32;99178.72;;;8.74;88.48
18988;BME280;5494;51.796;10.952;2023-02-18T03:48:00;99175.81;;;8.82;88.33
18988;BME280;5494;51.796;10.952;2023-02-18T03:50:28;99179.06;;;8.87;88.71
18988;BME280;5494;51.796;10.952;2023-02-18T03:52:56;99177.31;;;8.87;89.20
18988;BME280;5494;51.796;10.952;2023-02-18T03:55:26;99172.47;;;8.78;89.87
18988;BME280;5494;51.796;10.952;2023-02-18T03:57:55;99172.31;;;8.83;90.44
18988;BME280;5494;51.796;10.952;2023-02-18T04:00:23;99176.72;;;8.81;91.35
18988;BME280;5494;51.796;10.952;2023-02-18T04:02:51;99157.41;;;8.88;91.70
18988;BME280;5494;51.796;10.952;2023-02-18T04:05:20;99157.47;;;8.86;92.33
18988;BME280;5494;51.796;10.952;2023-02-18T04:07:47;99164.34;;;8.87;93.17
18988;BME280;5494;51.796;10.952;2023-02-18T04:10:16;99147.56;;;8.96;93.49
18988;BME280;5494;51.796;10.952;2023-02-18T04:12:45;99148.69;;;8.90;94.64
18988;BME280;5494;51.796;10.952;2023-02-18T04:15:14;99128.47;;;8.98;95.65
18988;BME280;5494;51.796;10.952;2023-02-18T04:17:42;99137.16;;;8.97;95.99
18988;BME280;5494;51.796;10.952;2023-02-18T04:20:11;99125.09;;;8.96;96.64
18988;BME280;5494;51.796;10.952;2023-02-18T04:22:39;99121.66;;;8.96;98.43
18988;BME280;5494;51.796;10.952;2023-02-18T04:25:07;99111.28;;;8.96;99.76
18988;BME280;5494;51.796;10.952;2023-02-18T04:27:35;99104.28;;;8.98;100.00
18988;BME280;5494;51.796;10.952;2023-02-18T04:30:05;99102.88;;;8.91;100.00
18988;BME280;5494;51.796;10.952;2023-02-18T04:32:35;99104.19;;;8.99;100.00
18988;BME280;5494;51.796;10.952;2023-02-18T04:35:03;99111.97;;;8.99;100.00
18988;BME280;5494;51.796;10.952;2023-02-18T04:37:31;99112.81;;;9.00;100.00
18988;BME280;5494;51.796;10.952;2023-02-18T04:39:59;99099.81;;;9.01;100.00
18988;BME280;5494;51.796;10.952;2023-02-18T04:42:27;99099.16;;;8.96;100.00
18988;BME280;5494;51.796;10.952;2023-02-18T04:44:55;99104.28;;;8.98;100.00
18988;BME280;5494;51.796;10.952;2023-02-18T04:47:23;99096.94;;;9.07;100.00
18988;BME280;5494;51.796;10.952;2023-02-18T04:49:52;99097.84;;;9.06;100.00
18988;BME280;5494;51.796;10.952;2023-02-18T04:52:20;99097.16;;;9.03;100.00
18988;BME280;5494;51.796;10.952;2023-02-18T04:54:49;99091.06;;;9.04;100.00
18988;BME280;5494;51.796;10.952;2023-02-18T04:57:17;99090.91;;;9.07;100.00
18988;BME280;5494;51.796;10.952;2023-02-18T04:59:44;99097.16;;;9.03;100.00
18988;BME280;5494;51.796;10.952;2023-02-18T05:02:12;99101.56;;;9.01;100.00
18988;BME280;5494;51.796;10.952;2023-02-18T05:04:41;99098.84;;;9.04;100.00
18988;BME280;5494;51.796;10.952;2023-02-18T05:07:10;99091.97;;;9.03;100.00
18988;BME280;5494;51.796;10.952;2023-02-18T05:09:38;99096.38;;;9.01;100.00
18988;BME280;5494;51.796;10.952;2023-02-18T05:12:07;99094.56;;;9.03;100.00
18988;BME280;5494;51.796;10.952;2023-02-18T05:14:35;99092.03;;;9.01;100.00
18988;BME280;5494;51.796;10.952;2023-02-18T05:17:03;99089.31;;;9.04;100.00
18988;BME280;5494;51.796;10.952;2023-02-18T05:19:31;99092.81;;;9.03;100.00
18988;BME280;5494;51.796;10.952;2023-02-18T05:21:59;99090.91;;;9.07;100.00
18988;BME280;5494;51.796;10.952;2023-02-18T05:24:28;99087.25;;;9.13;100.00
18988;BME280;5494;51.796;10.952;2023-02-18T05:26:56;99078.63;;;9.12;100.00
18988;BME280;5494;51.796;10.952;2023-02-18T05:29:24;99072.38;;;9.16;100.00
18988;BME280;5494;51.796;10.952;2023-02-18T05:31:52;99073.44;;;9.12;100.00
18988;BME280;5494;51.796;10.952;2023-02-18T05:34:20;99066.06;;;9.22;100.00
18988;BME280;5494;51.796;10.952;2023-02-18T05:36:48;99064.22;;;9.25;100.00
18988;BME280;5494;51.796;10.952;2023-02-18T05:39:16;99064.00;;;9.30;100.00
18988;BME280;5494;51.796;10.952;2023-02-18T05:41:45;99059.53;;;9.33;100.00
18988;BME280;5494;51.796;10.952;2023-02-18T05:44:13;99058.69;;;9.33;100.00
18988;BME280;5494;51.796;10.952;2023-02-18T05:47:03;99059.66;;;9.30;100.00
18988;BME280;5494;51.796;10.952;2023-02-18T05:49:33;99048.50;;;9.28;100.00
18988;BME280;5494;51.796;10.952;2023-02-18T05:52:02;99041.63;;;9.27;100.00
18988;BME280;5494;51.796;10.952;2023-02-18T05:54:31;99035.59;;;9.27;100.00
18988;BME280;5494;51.796;10.952;2023-02-18T05:57:01;99030.53;;;9.24;100.00
18988;BME280;5494;51.796;10.952;2023-02-18T05:59:29;99027.16;;;9.22;100.00
18988;BME280;5494;51.796;10.952;2023-02-18T06:01:57;99023.47;;;9.27;100.00
18988;BME280;5494;51.796;10.952;2023-02-18T06:04:26;99022.63;;;9.27;100.00
18988;BME280;5494;51.796;10.952;2023-02-18T06:06:54;99018.28;;;9.27;100.00
18988;BME280;5494;51.796;10.952;2023-02-18T06:09:22;99008.91;;;9.25;100.00
18988;BME280;5494;51.796;10.952;2023-02-18T06:11:50;99008.84;;;9.26;100.00
18988;BME280;5494;51.796;10.952;2023-02-18T06:14:19;99012.41;;;9.24;100.00
18988;BME280;5494;51.796;10.952;2023-02-18T06:16:47;99013.09;;;9.27;100.00
18988;BME280;5494;51.796;10.952;2023-02-18T06:19:15;99004.78;;;9.39;100.00
18988;BME280;5494;51.796;10.952;2023-02-18T06:21:43;98997.41;;;9.30;100.00
18988;BME280;5494;51.796;10.952;2023-02-18T06:24:13;98991.03;;;9.19;100.00
18988;BME280;5494;51.796;10.952;2023-02-18T06:26:41;98990.25;;;9.17;100.00
18988;BME280;5494;51.796;10.952;2023-02-18T06:29:09;98993.03;;;9.12;100.00
18988;BME280;5494;51.796;10.952;2023-02-18T06:31:39;98984.09;;;8.99;100.00
18988;BME280;5494;51.796;10.952;2023-02-18T06:34:10;98979.97;;;8.95;100.00
18988;BME280;5494;51.796;10.952;2023-02-18T06:36:38;98966.00;;;8.79;100.00
18988;BME280;5494;51.796;10.952;2023-02-18T06:39:06;98969.97;;;8.67;100.00
18988;BME280;5494;51.796;10.952;2023-02-18T06:41:35;98967.84;;;8.56;100.00
18988;BME280;5494;51.796;10.952;2023-02-18T06:44:03;98959.28;;;8.54;100.00
18988;BME280;5494;51.796;10.952;2023-02-18T06:46:31;98956.63;;;8.56;100.00
18988;BME280;5494;51.796;10.952;2023-02-18T06:49:01;98965.91;;;8.61;100.00
18988;BME280;5494;51.796;10.952;2023-02-18T06:51:29;98956.69;;;8.75;100.00
18988;BME280;5494;51.796;10.952;2023-02-18T06:53:57;98933.88;;;8.83;100.00
18988;BME280;5494;51.796;10.952;2023-02-18T06:56:25;98950.53;;;8.77;100.00
18988;BME280;5494;51.796;10.952;2023-02-18T06:58:53;98941.69;;;8.81;100.00
18988;BME280;5494;51.796;10.952;2023-02-18T07:01:24;98933.81;;;8.84;100.00
18988;BME280;5494;51.796;10.952;2023-02-18T07:03:52;98930.09;;;8.90;100.00
18988;BME280;5494;51.796;10.952;2023-02-18T07:06:21;98913.81;;;8.86;100.00
18988;BME280;5494;51.796;10.952;2023-02-18T07:08:49;98917.63;;;8.98;100.00
18988;BME280;5494;51.796;10.952;2023-02-18T07:11:17;98914.47;;;9.10;100.00
18988;BME280;5494;51.796;10.952;2023-02-18T07:13:45;98915.25;;;9.12;100.00
18988;BME280;5494;51.796;10.952;2023-02-18T07:16:13;98912.50;;;9.15;100.00
18988;BME280;5494;51.796;10.952;2023-02-18T07:18:41;98914.81;;;9.21;100.00
18988;BME280;5494;51.796;10.952;2023-02-18T07:21:09;98904.63;;;9.35;100.00
18988;BME280;5494;51.796;10.952;2023-02-18T07:23:38;98901.31;;;9.51;100.00
18988;BME280;5494;51.796;10.952;2023-02-18T07:26:10;98898.97;;;9.63;100.00
18988;BME280;5494;51.796;10.952;2023-02-18T07:28:38;98913.13;;;9.75;100.00
18988;BME280;5494;51.796;10.952;2023-02-18T07:31:07;98891.91;;;9.84;100.00
18988;BME280;5494;51.796;10.952;2023-02-18T07:33:35;98895.75;;;9.94;100.00
18988;BME280;5494;51.796;10.952;2023-02-18T07:36:04;98888.47;;;10.01;100.00
18988;BME280;5494;51.796;10.952;2023-02-18T07:38:33;98880.53;;;10.04;100.00
18988;BME280;5494;51.796;10.952;2023-02-18T07:41:02;98883.13;;;10.04;100.00
18988;BME280;5494;51.796;10.952;2023-02-18T07:43:30;98872.66;;;10.05;100.00
18988;BME280;5494;51.796;10.952;2023-02-18T07:45:58;98866.41;;;10.09;100.00
18988;BME280;5494;51.796;10.952;2023-02-18T07:48:26;98857.09;;;10.22;100.00
18988;BME280;5494;51.796;10.952;2023-02-18T07:50:55;98849.72;;;10.31;100.00
18988;BME280;5494;51.796;10.952;2023-02-18T07:53:22;98848.94;;;10.46;100.00
18988;BME280;5494;51.796;10.952;2023-02-18T07:55:50;98839.59;;;10.59;100.00
18988;BME280;5494;51.796;10.952;2023-02-18T07:58:22;98833.53;;;10.58;100.00
18988;BME280;5494;51.796;10.952;2023-02-18T08:00:51;98828.13;;;10.63;100.00
18988;BME280;5494;51.796;10.952;2023-02-18T08:03:22;98833.66;;;10.73;100.00
18988;BME280;5494;51.796;10.952;2023-02-18T08:05:51;98830.06;;;10.75;100.00
18988;BME280;5494;51.796;10.952;2023-02-18T08:08:22;98827.31;;;10.78;100.00
18988;BME280;5494;51.796;10.952;2023-02-18T08:10:53;98827.47;;;10.91;100.00
18988;BME280;5494;51.796;10.952;2023-02-18T08:13:23;98812.94;;;11.02;100.00
18988;BME280;5494;51.796;10.952;2023-02-18T08:15:54;98801.19;;;11.11;100.00
18988;BME280;5494;51.796;10.952;2023-02-18T08:18:24;98793.69;;;11.21;100.00
18988;BME280;5494;51.796;10.952;2023-02-18T08:20:52;98775.25;;;11.25;100.00
18988;BME280;5494;51.796;10.952;2023-02-18T08:23:22;98780.19;;;11.30;100.00
18988;BME280;5494;51.796;10.952;2023-02-18T08:25:53;98765.78;;;11.54;100.00
18988;BME280;5494;51.796;10.952;2023-02-18T08:28:23;98768.09;;;11.59;100.00
18988;BME280;5494;51.796;10.952;2023-02-18T08:30:53;98756.97;;;11.71;100.00
18988;BME280;5494;51.796;10.952;2023-02-18T08:33:22;98757.94;;;11.84;100.00
18988;BME280;5494;51.796;10.952;2023-02-18T08:35:53;98749.69;;;12.06;100.00
18988;BME280;5494;51.796;10.952;2023-02-18T08:38:23;98743.19;;;12.13;100.00
18988;BME280;5494;51.796;10.952;2023-02-18T08:41:01;98735.06;;;12.03;100.00
18988;BME280;5494;51.796;10.952;2023-02-18T08:43:30;98720.88;;;12.09;100.00
18988;BME280;5494;51.796;10.952;2023-02-18T08:45:58;98731.91;;;12.12;100.00
18988;BME280;5494;51.796;10.952;2023-02-18T08:48:27;98736.28;;;12.26;100.00
18988;BME280;5494;51.796;10.952;2023-02-18T08:50:56;98714.84;;;12.49;100.00
18988;BME280;5494;51.796;10.952;2023-02-18T08:53:24;98719.28;;;12.61;100.00
18988;BME280;5494;51.796;10.952;2023-02-18T08:55:52;98710.97;;;12.96;100.00
18988;BME280;5494;51.796;10.952;2023-02-18T08:58:20;98713.09;;;13.30;100.00
18988;BME280;5494;51.796;10.952;2023-02-18T09:00:49;98715.13;;;13.52;100.00
18988;BME280;5494;51.796;10.952;2023-02-18T09:03:17;98698.94;;;13.60;100.00
18988;BME280;5494;51.796;10.952;2023-02-18T09:05:45;98710.41;;;13.57;100.00
18988;BME280;5494;51.796;10.952;2023-02-18T09:08:13;98714.19;;;13.40;100.00
18988;BME280;5494;51.796;10.952;2023-02-18T09:10:41;98690.34;;;13.32;100.00
18988;BME280;5494;51.796;10.952;2023-02-18T09:13:12;98699.94;;;13.32;100.00
18988;BME280;5494;51.796;10.952;2023-02-18T09:15:39;98699.97;;;13.45;100.00
18988;BME280;5494;51.796;10.952;2023-02-18T09:18:11;98707.91;;;13.43;100.00
18988;BME280;5494;51.796;10.952;2023-02-18T09:20:39;98691.63;;;13.77;100.00
18988;BME280;5494;51.796;10.952;2023-02-18T09:23:07;98692.25;;;13.81;100.00
18988;BME280;5494;51.796;10.952;2023-02-18T09:25:38;98703.94;;;13.63;100.00
18988;BME280;5494;51.796;10.952;2023-02-18T09:28:06;98684.72;;;13.64;100.00
18988;BME280;5494;51.796;10.952;2023-02-18T09:30:34;98701.47;;;13.61;100.00
18988;BME280;5494;51.796;10.952;2023-02-18T09:33:02;98702.25;;;13.49;100.00
18988;BME280;5494;51.796;10.952;2023-02-18T09:35:31;98715.81;;;13.41;100.00
18988;BME280;5494;51.796;10.952;2023-02-18T09:37:59;98719.81;;;13.34;100.00
18988;BME280;5494;51.796;10.952;2023-02-18T09:40:32;98714.47;;;13.36;100.00
18988;BME280;5494;51.796;10.952;2023-02-18T09:43:02;98700.78;;;13.32;100.00
18988;BME280;5494;51.796;10.952;2023-02-18T09:45:30;98694.09;;;13.01;100.00
18988;BME280;5494;51.796;10.952;2023-02-18T09:48:01;98709.81;;;12.87;100.00
18988;BME280;5494;51.796;10.952;2023-02-18T09:50:33;98696.41;;;12.79;100.00
18988;BME280;5494;51.796;10.952;2023-02-18T09:53:03;98707.22;;;12.46;100.00
18988;BME280;5494;51.796;10.952;2023-02-18T09:55:38;98688.28;;;12.30;100.00
18988;BME280;5494;51.796;10.952;2023-02-18T09:58:13;98697.00;;;12.29;100.00
18988;BME280;5494;51.796;10.952;2023-02-18T10:00:45;98696.25;;;12.27;100.00
18988;BME280;5494;51.796;10.952;2023-02-18T10:03:17;98688.91;;;12.34;100.00
18988;BME280;5494;51.796;10.952;2023-02-18T10:05:58;98680.34;;;12.58;100.00
18988;BME280;5494;51.796;10.952;2023-02-18T10:08:32;98677.16;;;12.68;100.00
18988;BME280;5494;51.796;10.952;2023-02-18T10:11:02;98673.78;;;12.80;100.00
18988;BME280;5494;51.796;10.952;2023-02-18T10:13:33;98668.66;;;13.05;100.00
18988;BME280;5494;51.796;10.952;2023-02-18T10:16:02;98663.50;;;13.30;100.00
18988;BME280;5494;51.796;10.952;2023-02-18T10:18:35;98666.25;;;13.54;100.00
18988;BME280;5494;51.796;10.952;2023-02-18T10:21:14;98674.41;;;13.75;100.00
18988;BME280;5494;51.796;10.952;2023-02-18T10:23:53;98671.78;;;13.75;100.00
18988;BME280;5494;51.796;10.952;2023-02-18T10:26:22;98670.53;;;13.68;100.00
18988;BME280;5494;51.796;10.952;2023-02-18T10:28:50;98659.44;;;13.39;100.00
18988;BME280;5494;51.796;10.952;2023-02-18T10:31:24;98658.16;;;13.19;100.00
18988;BME280;5494;51.796;10.952;2023-02-18T10:34:02;98663.78;;;13.13;100.00
18988;BME280;5494;51.796;10.952;2023-02-18T10:36:43;98658.16;;;13.19;100.00
18988;BME280;5494;51.796;10.952;2023-02-18T10:39:32;98667.25;;;13.14;100.00
18988;BME280;5494;51.796;10.952;2023-02-18T10:42:16;98656.06;;;13.24;100.00
18988;BME280;5494;51.796;10.952;2023-02-18T10:44:58;98639.56;;;13.24;100.00
18988;BME280;5494;51.796;10.952;2023-02-18T10:47:37;98635.25;;;13.10;100.00
18988;BME280;5494;51.796;10.952;2023-02-18T10:50:17;98635.34;;;13.09;100.00
18988;BME280;5494;51.796;10.952;2023-02-18T10:52:59;98638.53;;;13.14;100.00
18988;BME280;5494;51.796;10.952;2023-02-18T10:55:38;98642.38;;;13.21;100.00
18988;BME280;5494;51.796;10.952;2023-02-18T10:58:25;98644.78;;;13.24;100.00
18988;BME280;5494;51.796;10.952;2023-02-18T11:00:54;98649.78;;;13.14;99.55
18988;BME280;5494;51.796;10.952;2023-02-18T11:03:24;98647.44;;;13.10;100.00
18988;BME280;5494;51.796;10.952;2023-02-18T11:05:55;98651.50;;;13.01;98.50
18988;BME280;5494;51.796;10.952;2023-02-18T11:08:38;98652.41;;;13.14;98.29
18988;BME280;5494;51.796;10.952;2023-02-18T11:11:15;98628.91;;;13.14;95.34
18988;BME280;5494;51.796;10.952;2023-02-18T11:13:44;98634.34;;;13.24;93.18
18988;BME280;5494;51.796;10.952;2023-02-18T11:16:21;98635.53;;;13.32;91.84
18988;BME280;5494;51.796;10.952;2023-02-18T11:18:50;98613.47;;;13.36;92.08
18988;BME280;5494;51.796;10.952;2023-02-18T11:21:28;98616.41;;;13.45;92.42
18988;BME280;5494;51.796;10.952;2023-02-18T11:24:07;98607.97;;;13.41;91.01
18988;BME280;5494;51.796;10.952;2023-02-18T11:26:38;98612.00;;;13.58;90.77
18988;BME280;5494;51.796;10.952;2023-02-18T11:29:17;98610.34;;;13.44;88.24
18988;BME280;5494;51.796;10.952;2023-02-18T11:31:50;98602.41;;;13.46;87.65
18988;BME280;5494;51.796;10.952;2023-02-18T11:34:21;98602.59;;;13.43;88.26
18988;BME280;5494;51.796;10.952;2023-02-18T11:36:51;98587.66;;;13.70;87.22
18988;BME280;5494;51.796;10.952;2023-02-18T11:39:24;98554.78;;;13.55;88.94
18988;BME280;5494;51.796;10.952;2023-02-18T11:41:56;98552.16;;;13.42;91.18
18988;BME280;5494;51.796;10.952;2023-02-18T11:44:29;98549.69;;;13.40;94.54
18988;BME280;5494;51.796;10.952;2023-02-18T11:47:01;98557.50;;;13.28;95.99
18988;BME280;5494;51.796;10.952;2023-02-18T11:49:34;98561.38;;;13.22;97.29
18988;BME280;5494;51.796;10.952;2023-02-18T11:52:24;98553.94;;;13.29;96.31
18988;BME280;5494;51.796;10.952;2023-02-18T11:55:01;98540.34;;;13.49;93.77
18988;BME280;5494;51.796;10.952;2023-02-18T11:57:32;98541.41;;;13.47;91.61
18988;BME280;5494;51.796;10.952;2023-02-18T12:00:04;98550.38;;;13.43;91.09
18988;BME280;5494;51.796;10.952;2023-02-18T12:02:41;98539.88;;;13.31;88.29
18988;BME280;5494;51.796;10.952;2023-02-18T12:05:15;98577.25;;;13.32;87.59
18988;BME280;5494;51.796;10.952;2023-02-18T12:07:49;98587.19;;;13.39;87.69
18988;BME280;5494;51.796;10.952;2023-02-18T12:10:26;98593.00;;;13.30;87.77
18988;BME280;5494;51.796;10.952;2023-02-18T12:13:02;98580.81;;;13.18;89.81
18988;BME280;5494;51.796;10.952;2023-02-18T12:15:47;98596.97;;;13.23;90.67
18988;BME280;5494;51.796;10.952;2023-02-18T12:18:51;98588.31;;;13.35;91.08
18988;BME280;5494;51.796;10.952;2023-02-18T12:21:41;98587.06;;;13.41;90.54
18988;BME280;5494;51.796;10.952;2023-02-18T12:24:32;98582.56;;;13.30;89.77
18988;BME280;5494;51.796;10.952;2023-02-18T12:27:15;98596.00;;;13.12;88.68
18988;BME280;5494;51.796;10.952;2023-02-18T12:30:27;98616.97;;;13.10;89.29
18988;BME280;5494;51.796;10.952;2023-02-18T12:33:09;98607.38;;;12.98;90.42
18988;BME280;5494;51.796;10.952;2023-02-18T12:35:59;98614.00;;;12.89;89.96
18988;BME280;5494;51.796;10.952;2023-02-18T12:39:01;98610.97;;;12.83;90.28
18988;BME280;5494;51.796;10.952;2023-02-18T12:42:15;98618.56;;;12.73;90.55
18988;BME280;5494;51.796;10.952;2023-02-18T12:45:07;98608.03;;;12.75;91.01
18988;BME280;5494;51.796;10.952;2023-02-18T12:48:11;98624.44;;;12.77;90.86
18988;BME280;5494;51.796;10.952;2023-02-18T12:50:56;98621.88;;;12.62;90.62
18988;BME280;5494;51.796;10.952;2023-02-18T12:54:03;98602.91;;;12.73;92.56
18988;BME280;5494;51.796;10.952;2023-02-18T12:56:49;98609.34;;;12.55;94.02
18988;BME280;5494;51.796;10.952;2023-02-18T12:59:48;98613.19;;;12.49;99.06
18988;BME280;5494;51.796;10.952;2023-02-18T13:02:45;98615.47;;;12.27;100.00
18988;BME280;5494;51.796;10.952;2023-02-18T13:05:32;98614.41;;;12.03;100.00
18988;BME280;5494;51.796;10.952;2023-02-18T13:08:22;98618.53;;;11.78;100.00
18988;BME280;5494;51.796;10.952;2023-02-18T13:11:13;98629.22;;;11.74;100.00
18988;BME280;5494;51.796;10.952;2023-02-18T13:13:55;98631.56;;;11.78;100.00
18988;BME280;5494;51.796;10.952;2023-02-18T13:16:28;98639.38;;;11.78;100.00
18988;BME280;5494;51.796;10.952;2023-02-18T13:19:02;98628.56;;;11.84;100.00
18988;BME280;5494;51.796;10.952;2023-02-18T13:21:36;98623.34;;;11.84;100.00
18988;BME280;5494;51.796;10.952;2023-02-18T13:24:12;98627.91;;;11.67;100.00
18988;BME280;5494;51.796;10.952;2023-02-18T13:26:45;98648.06;;;11.63;100.00
18988;BME280;5494;51.796;10.952;2023-02-18T13:29:26;98652.88;;;11.55;100.00
18988;BME280;5494;51.796;10.952;2023-02-18T13:32:12;98657.81;;;11.45;100.00
18988;BME280;5494;51.796;10.952;2023-02-18T13:34:50;98651.03;;;11.43;100.00